Map

Track Data

SID SEASON NUMBER BASIN SUBBASIN NAME ISO_TIME NATURE LAT LON WMO_WIND WMO_PRES WMO_AGENCY TRACK_TYPE DIST2LAND LANDFALL IFLAG USA_AGENCY USA_ATCF_ID USA_LAT USA_LON USA_RECORD USA_STATUS USA_WIND USA_PRES USA_SSHS USA_R34_NE USA_R34_SE USA_R34_SW USA_R34_NW USA_R50_NE USA_R50_SE USA_R50_SW USA_R50_NW USA_R64_NE USA_R64_SE USA_R64_SW USA_R64_NW USA_POCI USA_ROCI USA_RMW USA_EYE TOKYO_LAT TOKYO_LON TOKYO_GRADE TOKYO_WIND TOKYO_PRES TOKYO_R50_DIR TOKYO_R50_LONG TOKYO_R50_SHORT TOKYO_R30_DIR TOKYO_R30_LONG TOKYO_R30_SHORT TOKYO_LAND CMA_LAT CMA_LON CMA_CAT CMA_WIND CMA_PRES HKO_LAT HKO_LON HKO_CAT HKO_WIND HKO_PRES NEWDELHI_LAT NEWDELHI_LON NEWDELHI_GRADE NEWDELHI_WIND NEWDELHI_PRES NEWDELHI_CI NEWDELHI_DP NEWDELHI_POCI REUNION_LAT REUNION_LON REUNION_TYPE REUNION_WIND REUNION_PRES REUNION_TNUM REUNION_CI REUNION_RMW REUNION_R34_NE REUNION_R34_SE REUNION_R34_SW REUNION_R34_NW REUNION_R50_NE REUNION_R50_SE REUNION_R50_SW REUNION_R50_NW REUNION_R64_NE REUNION_R64_SE REUNION_R64_SW REUNION_R64_NW BOM_LAT BOM_LON BOM_TYPE BOM_WIND BOM_PRES BOM_TNUM BOM_CI BOM_RMW BOM_R34_NE BOM_R34_SE BOM_R34_SW BOM_R34_NW BOM_R50_NE BOM_R50_SE BOM_R50_SW BOM_R50_NW BOM_R64_NE BOM_R64_SE BOM_R64_SW BOM_R64_NW BOM_ROCI BOM_POCI BOM_EYE BOM_POS_METHOD BOM_PRES_METHOD NADI_LAT NADI_LON NADI_CAT NADI_WIND NADI_PRES WELLINGTON_LAT WELLINGTON_LON WELLINGTON_WIND WELLINGTON_PRES DS824_LAT DS824_LON DS824_STAGE DS824_WIND DS824_PRES TD9636_LAT TD9636_LON TD9636_STAGE TD9636_WIND TD9636_PRES TD9635_LAT TD9635_LON TD9635_WIND TD9635_PRES TD9635_ROCI NEUMANN_LAT NEUMANN_LON NEUMANN_CLASS NEUMANN_WIND NEUMANN_PRES MLC_LAT MLC_LON MLC_CLASS MLC_WIND MLC_PRES USA_GUST BOM_GUST BOM_GUST_PER REUNION_GUST REUNION_GUST_PER USA_SEAHGT USA_SEARAD_NE USA_SEARAD_SE USA_SEARAD_SW USA_SEARAD_NW STORM_SPEED STORM_DIR
1998232N15312 1998 50 NA NA BONNIE 1998-08-19 12:00:00 TS 14.7000 -48.1000 25 1009 hurdat_atl main 1171 1160 O_____________ hurdat_atl AL021998 14.7000 -48.1000 TD 25 1009 -1 21 289
1998232N15312 1998 50 NA NA BONNIE 1998-08-19 15:00:00 TS 15.0385 -49.0995 main 1159 1151 P_____________ AL021998 15.0385 -49.0995 TD 27 1009 -1 21 290
1998232N15312 1998 50 NA NA BONNIE 1998-08-19 18:00:00 TS 15.4000 -50.1000 30 1009 hurdat_atl main 1154 1150 O_____________ hurdat_atl AL021998 15.4000 -50.1000 TD 30 1009 -1 21 291
1998232N15312 1998 50 NA NA BONNIE 1998-08-19 21:00:00 TS 15.7991 -51.1129 main 1159 1142 P_____________ AL021998 15.7991 -51.1129 TD 30 1009 -1 22 292
1998232N15312 1998 50 NA NA BONNIE 1998-08-20 00:00:00 TS 16.2000 -52.2000 30 1009 hurdat_atl main 1133 1055 O_____________ hurdat_atl AL021998 16.2000 -52.2000 TD 30 1009 -1 23 289
1998232N15312 1998 50 NA NA BONNIE 1998-08-20 03:00:00 TS 16.5796 -53.4126 main 1053 979 P_____________ AL021998 16.5796 -53.4126 TD 30 1008 -1 25 286
1998232N15312 1998 50 NA NA BONNIE 1998-08-20 06:00:00 TS 16.9000 -54.7000 30 1008 hurdat_atl main 971 903 O_____________ hurdat_atl AL021998 16.9000 -54.7000 TD 30 1008 -1 25 281
1998232N15312 1998 50 NA NA BONNIE 1998-08-20 09:00:00 TS 17.0847 -56.0163 main 897 845 P_____________ AL021998 17.0847 -56.0163 TD 32 1007 -1 25 279
1998232N15312 1998 50 NA NA BONNIE 1998-08-20 12:00:00 TS 17.3000 -57.3000 35 1007 hurdat_atl main 839 753 O_____________ hurdat_atl AL021998 17.3000 -57.3000 TS 35 1007 0 25 285
1998232N15312 1998 50 NA NA BONNIE 1998-08-20 15:00:00 TS 17.7421 -58.5165 main 753 644 P_____________ AL021998 17.7421 -58.5165 TS 35 1006 0 24 292
1998232N15312 1998 50 NA NA BONNIE 1998-08-20 18:00:00 TS 18.2000 -59.6000 35 1006 hurdat_atl main 633 538 O_____________ hurdat_atl AL021998 18.2000 -59.6000 TS 35 1006 0 20 292
1998232N15312 1998 50 NA NA BONNIE 1998-08-20 21:00:00 TS 18.4865 -60.5033 main 538 454 P_____________ AL021998 18.4865 -60.5033 TS 37 1005 0 17 287
1998232N15312 1998 50 NA NA BONNIE 1998-08-21 00:00:00 TS 18.7000 -61.3000 40 1005 hurdat_atl main 454 372 O_____________ hurdat_atl AL021998 18.7000 -61.3000 TS 40 1005 0 16 285
1998232N15312 1998 50 NA NA BONNIE 1998-08-21 03:00:00 TS 18.9071 -62.1078 main 372 294 P_____________ AL021998 18.9071 -62.1078 TS 42 1003 0 16 285
1998232N15312 1998 50 NA NA BONNIE 1998-08-21 06:00:00 TS 19.1000 -62.9000 45 1002 hurdat_atl main 294 223 O_____________ hurdat_atl AL021998 19.1000 -62.9000 TS 45 1002 0 16 283
1998232N15312 1998 50 NA NA BONNIE 1998-08-21 09:00:00 TS 19.2698 -63.7155 main 223 168 P_____________ AL021998 19.2698 -63.7155 TS 47 1001 0 16 285
1998232N15312 1998 50 NA NA BONNIE 1998-08-21 12:00:00 TS 19.5000 -64.5000 50 1000 hurdat_atl main 168 158 O_____________ hurdat_atl AL021998 19.5000 -64.5000 TS 50 1000 0 15 293
1998232N15312 1998 50 NA NA BONNIE 1998-08-21 15:00:00 TS 19.8695 -65.2150 main 172 170 P_____________ AL021998 19.8695 -65.2150 TS 52 999 0 15 301
1998232N15312 1998 50 NA NA BONNIE 1998-08-21 18:00:00 TS 20.3000 -65.9000 55 999 hurdat_atl main 212 212 O_____________ hurdat_atl AL021998 20.3000 -65.9000 TS 55 999 0 15 303
1998232N15312 1998 50 NA NA BONNIE 1998-08-21 21:00:00 TS 20.7072 -66.6003 main 257 257 P_____________ AL021998 20.7072 -66.6003 TS 60 995 0 15 301
1998232N15312 1998 50 NA NA BONNIE 1998-08-22 00:00:00 TS 21.1000 -67.3000 65 991 hurdat_atl main 289 276 O_____________ hurdat_atl AL021998 21.1000 -67.3000 HU 65 991 1 15 300
1998232N15312 1998 50 NA NA BONNIE 1998-08-22 03:00:00 TS 21.4725 -68.0226 main 280 273 P_____________ AL021998 21.4725 -68.0226 HU 67 990 1 15 298
1998232N15312 1998 50 NA NA BONNIE 1998-08-22 06:00:00 TS 21.8000 -68.7000 70 989 hurdat_atl main 280 275 O_____________ hurdat_atl AL021998 21.8000 -68.7000 HU 70 989 1 13 296
1998232N15312 1998 50 NA NA BONNIE 1998-08-22 09:00:00 TS 22.0498 -69.3030 main 278 278 P_____________ AL021998 22.0498 -69.3030 HU 72 984 1 11 296
1998232N15312 1998 50 NA NA BONNIE 1998-08-22 12:00:00 TS 22.3000 -69.8000 75 980 hurdat_atl main 291 291 O_____________ hurdat_atl AL021998 22.3000 -69.8000 HU 75 980 1 10 306
1998232N15312 1998 50 NA NA BONNIE 1998-08-22 15:00:00 TS 22.6573 -70.1950 main 326 322 P_____________ AL021998 22.6573 -70.1950 HU 80 975 1 10 317
1998232N15312 1998 50 NA NA BONNIE 1998-08-22 18:00:00 TS 23.0000 -70.5000 85 970 hurdat_atl main 326 318 O_____________ hurdat_atl AL021998 23.0000 -70.5000 HU 85 970 2 8 316
1998232N15312 1998 50 NA NA BONNIE 1998-08-22 21:00:00 TS 23.2224 -70.7802 main 318 318 P_____________ AL021998 23.2224 -70.7802 HU 87 966 2 6 311
1998232N15312 1998 50 NA NA BONNIE 1998-08-23 00:00:00 TS 23.4000 -71.0000 90 962 hurdat_atl main 320 320 O_____________ hurdat_atl AL021998 23.4000 -71.0000 HU 90 962 2 5 317
1998232N15312 1998 50 NA NA BONNIE 1998-08-23 03:00:00 TS 23.6074 -71.1726 main 325 325 P_____________ AL021998 23.6074 -71.1726 HU 92 961 2 5 326
1998232N15312 1998 50 NA NA BONNIE 1998-08-23 06:00:00 TS 23.8000 -71.3000 95 960 hurdat_atl main 339 339 O_____________ hurdat_atl AL021998 23.8000 -71.3000 HU 95 960 2 4 328
1998232N15312 1998 50 NA NA BONNIE 1998-08-23 09:00:00 TS 23.9575 -71.4076 main 353 348 P_____________ AL021998 23.9575 -71.4076 HU 97 959 3 4 329
1998232N15312 1998 50 NA NA BONNIE 1998-08-23 12:00:00 TS 24.1000 -71.5000 100 958 hurdat_atl main 358 358 O_____________ hurdat_atl AL021998 24.1000 -71.5000 HU 100 958 3 3 327
1998232N15312 1998 50 NA NA BONNIE 1998-08-23 15:00:00 TS 24.2425 -71.6075 main 364 364 P_____________ AL021998 24.2425 -71.6075 HU 100 956 3 4 329
1998232N15312 1998 50 NA NA BONNIE 1998-08-23 18:00:00 TS 24.4000 -71.7000 100 955 hurdat_atl main 381 381 O_____________ hurdat_atl AL021998 24.4000 -71.7000 HU 100 955 3 4 341
1998232N15312 1998 50 NA NA BONNIE 1998-08-23 21:00:00 TS 24.5925 -71.7426 main 402 399 P_____________ AL021998 24.5925 -71.7426 HU 100 954 3 4 348
1998232N15312 1998 50 NA NA BONNIE 1998-08-24 00:00:00 TS 24.8000 -71.8000 100 954 hurdat_atl main 420 420 O_____________ hurdat_atl AL021998 24.8000 -71.8000 HU 100 954 3 4 337
1998232N15312 1998 50 NA NA BONNIE 1998-08-24 03:00:00 TS 25.0000 -71.9350 main 439 436 P_____________ AL021998 25.0000 -71.9350 HU 100 957 3 5 326
1998232N15312 1998 50 NA NA BONNIE 1998-08-24 06:00:00 TS 25.2000 -72.1000 100 960 hurdat_atl main 456 456 O_____________ hurdat_atl AL021998 25.2000 -72.1000 HU 100 960 3 5 325
1998232N15312 1998 50 NA NA BONNIE 1998-08-24 09:00:00 TS 25.3925 -72.2426 main 476 474 P_____________ AL021998 25.3925 -72.2426 HU 100 961 3 5 326
1998232N15312 1998 50 NA NA BONNIE 1998-08-24 12:00:00 TS 25.6000 -72.4000 100 962 hurdat_atl main 495 495 O_____________ hurdat_atl AL021998 25.6000 -72.4000 HU 100 962 3 5 323
1998232N15312 1998 50 NA NA BONNIE 1998-08-24 15:00:00 TS 25.8200 -72.5926 main 515 515 P_____________ AL021998 25.8200 -72.5926 HU 100 962 3 6 324
1998232N15312 1998 50 NA NA BONNIE 1998-08-24 18:00:00 TS 26.1000 -72.8000 100 962 hurdat_atl main 523 517 O_____________ hurdat_atl AL021998 26.1000 -72.8000 HU 100 962 3 7 332
1998232N15312 1998 50 NA NA BONNIE 1998-08-24 21:00:00 TS 26.4699 -72.9852 main 521 515 P_____________ AL021998 26.4699 -72.9852 HU 100 962 3 9 336
1998232N15312 1998 50 NA NA BONNIE 1998-08-25 00:00:00 TS 26.9000 -73.2000 100 963 hurdat_atl main 519 514 O_____________ hurdat_atl AL021998 26.9000 -73.2000 HU 100 963 3 10 334
1998232N15312 1998 50 NA NA BONNIE 1998-08-25 03:00:00 TS 27.3349 -73.4629 main 511 508 P_____________ AL021998 27.3349 -73.4629 HU 100 962 3 10 329
1998232N15312 1998 50 NA NA BONNIE 1998-08-25 06:00:00 TS 27.8000 -73.8000 100 962 hurdat_atl main 515 512 O_____________ hurdat_atl AL021998 27.8000 -73.8000 HU 100 962 3 12 325
1998232N15312 1998 50 NA NA BONNIE 1998-08-25 09:00:00 TS 28.2926 -74.2275 main 519 512 P_____________ AL021998 28.2926 -74.2275 HU 100 962 3 13 322
1998232N15312 1998 50 NA NA BONNIE 1998-08-25 12:00:00 TS 28.8000 -74.7000 100 963 hurdat_atl main 526 526 O_____________ hurdat_atl AL021998 28.8000 -74.7000 HU 100 963 3 13 321
1998232N15312 1998 50 NA NA BONNIE 1998-08-25 15:00:00 TS 29.2999 -75.1578 main 522 493 P_____________ AL021998 29.2999 -75.1578 HU 100 963 3 13 322
1998232N15312 1998 50 NA NA BONNIE 1998-08-25 18:00:00 TS 29.8000 -75.6000 100 963 hurdat_atl main 496 440 O_____________ hurdat_atl AL021998 29.8000 -75.6000 HU 100 963 3 12 324
1998232N15312 1998 50 NA NA BONNIE 1998-08-25 21:00:00 TS 30.3072 -76.0005 main 440 374 P_____________ AL021998 30.3072 -76.0005 HU 100 960 3 12 325
1998232N15312 1998 50 NA NA BONNIE 1998-08-26 00:00:00 TS 30.8000 -76.4000 100 958 hurdat_atl main 374 316 O_____________ hurdat_atl AL021998 30.8000 -76.4000 HU 100 958 3 12 322
1998232N15312 1998 50 NA NA BONNIE 1998-08-26 03:00:00 TS 31.2502 -76.8726 main 301 244 P_____________ AL021998 31.2502 -76.8726 HU 100 961 3 12 319
1998232N15312 1998 50 NA NA BONNIE 1998-08-26 06:00:00 TS 31.7000 -77.3000 100 964 hurdat_atl main 244 186 O_____________ hurdat_atl AL021998 31.7000 -77.3000 HU 100 964 3 12 327
1998232N15312 1998 50 NA NA BONNIE 1998-08-26 09:00:00 TS 32.2149 -77.6175 main 186 135 P_____________ AL021998 32.2149 -77.6175 HU 100 964 3 11 337
1998232N15312 1998 50 NA NA BONNIE 1998-08-26 12:00:00 TS 32.7000 -77.8000 100 965 hurdat_atl main 135 91 O_____________ hurdat_atl AL021998 32.7000 -77.8000 HU 100 965 3 9 347
1998232N15312 1998 50 NA NA BONNIE 1998-08-26 15:00:00 TS 33.0799 -77.8455 main 91 58 P_____________ AL021998 33.0799 -77.8455 HU 100 963 3 7 0
1998232N15312 1998 50 NA NA BONNIE 1998-08-26 18:00:00 TS 33.4000 -77.8000 100 962 hurdat_atl main 58 28 O_____________ hurdat_atl AL021998 33.4000 -77.8000 HU 100 962 3 6 7
1998232N15312 1998 50 NA NA BONNIE 1998-08-26 21:00:00 TS 33.7071 -77.7481 main 35 21 P_____________ AL021998 33.7071 -77.7481 HU 97 962 3 6 8
1998232N15312 1998 50 NA NA BONNIE 1998-08-27 00:00:00 TS 34.0000 -77.7000 95 963 hurdat_atl main 21 0 O_____________ hurdat_atl AL021998 34.0000 -77.7000 HU 95 963 2 6 0
1998232N15312 1998 50 NA NA BONNIE 1998-08-27 03:00:00 TS 34.3201 -77.7383 main 0 0 P_____________ AL021998 34.3201 -77.7383 HU 95 963 2 6 0
1998232N15312 1998 50 NA NA BONNIE 1998-08-27 04:00:00 TS 34.4000 -77.7000 95 964 hurdat_atl main 0 0 O_____________ hurdat_atl AL021998 34.4000 -77.7000 L HU 95 964 2 5 48
1998232N15312 1998 50 NA NA BONNIE 1998-08-27 06:00:00 TS 34.5000 -77.5000 85 965 hurdat_atl main 0 0 O_____________ hurdat_atl AL021998 34.5000 -77.5000 HU 85 965 2 5 51
1998232N15312 1998 50 NA NA BONNIE 1998-08-27 09:00:00 TS 34.6818 -77.2830 main 0 0 P_____________ AL021998 34.6818 -77.2830 HU 80 969 1 5 39
1998232N15312 1998 50 NA NA BONNIE 1998-08-27 12:00:00 TS 34.9000 -77.1000 75 974 hurdat_atl main 0 0 O_____________ hurdat_atl AL021998 34.9000 -77.1000 HU 75 974 1 6 36
1998232N15312 1998 50 NA NA BONNIE 1998-08-27 15:00:00 TS 35.1499 -76.8724 main 0 0 P_____________ AL021998 35.1499 -76.8724 HU 67 977 1 6 39
1998232N15312 1998 50 NA NA BONNIE 1998-08-27 18:00:00 TS 35.4000 -76.6000 60 980 hurdat_atl main 0 0 O_____________ hurdat_atl AL021998 35.4000 -76.6000 TS 60 980 0 7 47
1998232N15312 1998 50 NA NA BONNIE 1998-08-27 21:00:00 TS 35.6074 -76.2723 main 0 0 P_____________ AL021998 35.6074 -76.2723 TS 62 981 0 7 55
1998232N15312 1998 50 NA NA BONNIE 1998-08-28 00:00:00 TS 35.8000 -75.9000 65 983 hurdat_atl main 0 0 O_____________ hurdat_atl AL021998 35.8000 -75.9000 HU 65 983 1 7 58
1998232N15312 1998 50 NA NA BONNIE 1998-08-28 03:00:00 TS 35.9924 -75.5072 main 8 8 P_____________ AL021998 35.9924 -75.5072 HU 70 984 1 8 58
1998232N15312 1998 50 NA NA BONNIE 1998-08-28 06:00:00 TS 36.2000 -75.1000 75 985 hurdat_atl main 50 50 O_____________ hurdat_atl AL021998 36.2000 -75.1000 HU 75 985 1 8 55
1998232N15312 1998 50 NA NA BONNIE 1998-08-28 09:00:00 TS 36.4346 -74.7220 main 92 92 P_____________ AL021998 36.4346 -74.7220 HU 70 987 1 8 52
1998232N15312 1998 50 NA NA BONNIE 1998-08-28 12:00:00 TS 36.7000 -74.3000 65 990 hurdat_atl main 136 136 O_____________ hurdat_atl AL021998 36.7000 -74.3000 HU 65 990 1 9 54
1998232N15312 1998 50 NA NA BONNIE 1998-08-28 15:00:00 TS 36.9617 -73.8233 main 174 174 P_____________ AL021998 36.9617 -73.8233 HU 62 990 0 11 56
1998232N15312 1998 50 NA NA BONNIE 1998-08-28 18:00:00 TS 37.3000 -73.2000 60 991 hurdat_atl main 200 200 O_____________ hurdat_atl AL021998 37.3000 -73.2000 TS 60 991 0 14 55
1998232N15312 1998 50 NA NA BONNIE 1998-08-28 21:00:00 TS 37.7779 -72.3533 main 242 242 P_____________ AL021998 37.7779 -72.3533 TS 52 992 0 17 55
1998232N15312 1998 50 NA NA BONNIE 1998-08-29 00:00:00 TS 38.3000 -71.4000 45 993 hurdat_atl main 283 283 O_____________ hurdat_atl AL021998 38.3000 -71.4000 TS 45 993 0 17 56
1998232N15312 1998 50 NA NA BONNIE 1998-08-29 03:00:00 TS 38.7493 -70.4983 main 294 272 P_____________ AL021998 38.7493 -70.4983 TS 45 996 0 17 57
1998232N15312 1998 50 NA NA BONNIE 1998-08-29 06:00:00 TS 39.2000 -69.6000 45 999 hurdat_atl main 272 248 O_____________ hurdat_atl AL021998 39.2000 -69.6000 TS 45 999 0 16 56
1998232N15312 1998 50 NA NA BONNIE 1998-08-29 09:00:00 TS 39.6593 -68.7851 main 244 238 P_____________ AL021998 39.6593 -68.7851 TS 45 999 0 17 54
1998232N15312 1998 50 NA NA BONNIE 1998-08-29 12:00:00 TS 40.2000 -67.8000 45 999 hurdat_atl main 248 247 O_____________ hurdat_atl AL021998 40.2000 -67.8000 TS 45 999 0 22 56
1998232N15312 1998 50 NA NA BONNIE 1998-08-29 15:00:00 TS 40.8778 -66.4131 main 294 213 P_____________ AL021998 40.8778 -66.4131 TS 45 999 0 27 58
1998232N15312 1998 50 NA NA BONNIE 1998-08-29 18:00:00 TS 41.6000 -64.8000 45 1000 hurdat_atl main 215 197 O_____________ hurdat_atl AL021998 41.6000 -64.8000 TS 45 1000 0 27 60
1998232N15312 1998 50 NA NA BONNIE 1998-08-29 21:00:00 TS 42.2444 -63.2552 main 215 211 P_____________ AL021998 42.2444 -63.2552 TS 45 1000 0 28 62
1998232N15312 1998 50 NA NA BONNIE 1998-08-30 00:00:00 TS 42.9000 -61.5000 45 1000 hurdat_atl main 225 209 O_____________ hurdat_atl AL021998 42.9000 -61.5000 TS 45 1000 0 32 64
1998232N15312 1998 50 NA NA BONNIE 1998-08-30 03:00:00 TS 43.6868 -59.2750 main 219 219 P_____________ AL021998 43.6868 -59.2750 TS 45 1000 0 35 67
1998232N15312 1998 50 NA NA BONNIE 1998-08-30 06:00:00 TS 44.3000 -57.0000 45 1000 hurdat_atl main 294 255 O_____________ hurdat_atl AL021998 44.3000 -57.0000 TS 45 1000 0 31 74
1998232N15312 1998 50 NA NA BONNIE 1998-08-30 09:00:00 TS 44.5356 -55.1695 main 258 227 P_____________ AL021998 44.5356 -55.1695 TS 45 1000 0 25 85
1998232N15312 1998 50 NA NA BONNIE 1998-08-30 12:00:00 TS 44.5000 -53.5000 45 1000 hurdat_atl main 233 233 O_____________ hurdat_atl AL021998 44.5000 -53.5000 TS 45 1000 0 24 97
1998232N15312 1998 50 NA NA BONNIE 1998-08-30 15:00:00 TS 44.2564 -51.8558 main 274 274 P_____________ AL021998 44.2564 -51.8558 TS 45 999 0 25 101
1998232N15312 1998 50 NA NA BONNIE 1998-08-30 18:00:00 ET 44.0000 -50.0000 45 998 hurdat_atl main 381 381 O_____________ hurdat_atl AL021998 44.0000 -50.0000 EX 45 998 -4 31 94
1998232N15312 1998 50 NA NA BONNIE 1998-08-30 21:00:00 ET 44.0431 -47.5492 main 528 528 P_____________ AL021998 44.0431 -47.5492 EX 45 997 -4 36 90
1998232N15312 1998 50 NA NA BONNIE 1998-08-31 00:00:00 ET 44.0000 -45.0000 45 996 hurdat_atl main 695 695 O_____________ hurdat_atl AL021998 44.0000 -45.0000 EX 45 996 -4 34 97
1998232N15312 1998 50 NA NA BONNIE 1998-08-31 03:00:00 ET 43.6120 -42.8490 main 870 870 P_____________ AL021998 43.6120 -42.8490 EX 42 996 -4 31 109
1998232N15312 1998 50 NA NA BONNIE 1998-08-31 06:00:00 ET 43.0000 -41.0000 40 996 hurdat_atl main 1030 O_____________ hurdat_atl AL021998 43.0000 -41.0000 EX 40 996 -4 30 114

About IBTrACS Database

This database is a web-friendly format of International Best Track Archive for Climate Stewardship (IBTrACS), a global best track data archive curated by NOAA dating back to 1842.

Updated: 2021-12-03